sensor_id;sensor_type;location;lat;lon;timestamp;P1;durP1;ratioP1;P2;durP2;ratioP2
75316;SDS011;63913;51.492;10.368;2023-08-07T00:01:56;3.20;;;2.20;;
75316;SDS011;63913;51.492;10.368;2023-08-07T00:04:21;4.03;;;2.45;;
75316;SDS011;63913;51.492;10.368;2023-08-07T00:06:47;3.33;;;2.30;;
75316;SDS011;63913;51.492;10.368;2023-08-07T00:09:12;2.88;;;2.15;;
75316;SDS011;63913;51.492;10.368;2023-08-07T00:11:38;6.82;;;2.55;;
75316;SDS011;63913;51.492;10.368;2023-08-07T00:14:03;2.50;;;2.10;;
75316;SDS011;63913;51.492;10.368;2023-08-07T00:16:28;2.45;;;1.95;;
75316;SDS011;63913;51.492;10.368;2023-08-07T00:18:54;1.98;;;1.77;;
75316;SDS011;63913;51.492;10.368;2023-08-07T00:21:21;2.70;;;1.88;;
75316;SDS011;63913;51.492;10.368;2023-08-07T00:23:48;4.13;;;1.90;;
75316;SDS011;63913;51.492;10.368;2023-08-07T00:26:14;3.55;;;2.30;;
75316;SDS011;63913;51.492;10.368;2023-08-07T00:28:40;3.20;;;1.75;;
75316;SDS011;63913;51.492;10.368;2023-08-07T00:31:05;3.15;;;1.85;;
75316;SDS011;63913;51.492;10.368;2023-08-07T00:33:31;4.28;;;1.92;;
75316;SDS011;63913;51.492;10.368;2023-08-07T00:35:56;4.15;;;2.10;;
75316;SDS011;63913;51.492;10.368;2023-08-07T00:38:21;6.20;;;1.92;;
75316;SDS011;63913;51.492;10.368;2023-08-07T00:40:47;3.15;;;1.67;;
75316;SDS011;63913;51.492;10.368;2023-08-07T00:43:12;1.92;;;1.73;;
75316;SDS011;63913;51.492;10.368;2023-08-07T00:45:41;2.75;;;1.70;;
75316;SDS011;63913;51.492;10.368;2023-08-07T00:50:34;3.33;;;1.40;;
75316;SDS011;63913;51.492;10.368;2023-08-07T00:52:59;2.15;;;1.58;;
75316;SDS011;63913;51.492;10.368;2023-08-07T00:55:25;2.33;;;1.55;;
75316;SDS011;63913;51.492;10.368;2023-08-07T00:57:51;1.85;;;1.35;;
75316;SDS011;63913;51.492;10.368;2023-08-07T01:00:16;3.95;;;1.42;;
75316;SDS011;63913;51.492;10.368;2023-08-07T01:02:42;3.92;;;1.35;;
75316;SDS011;63913;51.492;10.368;2023-08-07T01:05:08;3.28;;;1.40;;
75316;SDS011;63913;51.492;10.368;2023-08-07T01:07:34;2.58;;;1.38;;
75316;SDS011;63913;51.492;10.368;2023-08-07T01:09:59;2.55;;;1.30;;
75316;SDS011;63913;51.492;10.368;2023-08-07T01:12:40;1.10;;;1.00;;
75316;SDS011;63913;51.492;10.368;2023-08-07T01:15:14;2.03;;;1.25;;
75316;SDS011;63913;51.492;10.368;2023-08-07T01:17:43;1.30;;;1.15;;
75316;SDS011;63913;51.492;10.368;2023-08-07T01:20:10;1.27;;;1.10;;
75316;SDS011;63913;51.492;10.368;2023-08-07T01:22:36;1.48;;;1.23;;
75316;SDS011;63913;51.492;10.368;2023-08-07T01:25:02;1.67;;;1.40;;
75316;SDS011;63913;51.492;10.368;2023-08-07T01:35:27;1.30;;;1.10;;
75316;SDS011;63913;51.492;10.368;2023-08-07T01:37:55;1.38;;;1.10;;
75316;SDS011;63913;51.492;10.368;2023-08-07T01:40:22;1.38;;;1.27;;
75316;SDS011;63913;51.492;10.368;2023-08-07T01:42:48;1.75;;;1.55;;
75316;SDS011;63913;51.492;10.368;2023-08-07T01:45:14;4.18;;;1.67;;
75316;SDS011;63913;51.492;10.368;2023-08-07T01:47:48;1.77;;;1.23;;
75316;SDS011;63913;51.492;10.368;2023-08-07T01:50:14;3.92;;;1.30;;
75316;SDS011;63913;51.492;10.368;2023-08-07T01:52:39;1.42;;;1.20;;
75316;SDS011;63913;51.492;10.368;2023-08-07T01:55:05;2.15;;;1.70;;
75316;SDS011;63913;51.492;10.368;2023-08-07T01:57:30;3.08;;;1.50;;
75316;SDS011;63913;51.492;10.368;2023-08-07T01:59:56;3.78;;;1.75;;
75316;SDS011;63913;51.492;10.368;2023-08-07T02:02:21;2.97;;;1.35;;
75316;SDS011;63913;51.492;10.368;2023-08-07T02:04:47;2.90;;;1.63;;
75316;SDS011;63913;51.492;10.368;2023-08-07T02:07:13;3.10;;;1.55;;
75316;SDS011;63913;51.492;10.368;2023-08-07T02:09:38;2.03;;;1.52;;
75316;SDS011;63913;51.492;10.368;2023-08-07T02:12:04;2.33;;;1.40;;
75316;SDS011;63913;51.492;10.368;2023-08-07T02:14:29;1.80;;;1.00;;
75316;SDS011;63913;51.492;10.368;2023-08-07T02:16:55;1.60;;;1.25;;
75316;SDS011;63913;51.492;10.368;2023-08-07T02:19:20;3.00;;;1.77;;
75316;SDS011;63913;51.492;10.368;2023-08-07T02:21:46;2.85;;;1.77;;
75316;SDS011;63913;51.492;10.368;2023-08-07T02:24:12;1.73;;;1.45;;
75316;SDS011;63913;51.492;10.368;2023-08-07T02:26:38;3.20;;;1.77;;
75316;SDS011;63913;51.492;10.368;2023-08-07T02:29:04;2.28;;;1.75;;
75316;SDS011;63913;51.492;10.368;2023-08-07T02:31:31;1.42;;;1.33;;
75316;SDS011;63913;51.492;10.368;2023-08-07T02:33:57;1.90;;;1.48;;
75316;SDS011;63913;51.492;10.368;2023-08-07T02:36:22;3.30;;;1.60;;
75316;SDS011;63913;51.492;10.368;2023-08-07T02:38:48;2.30;;;1.38;;
75316;SDS011;63913;51.492;10.368;2023-08-07T02:41:13;2.42;;;1.58;;
75316;SDS011;63913;51.492;10.368;2023-08-07T02:43:38;2.58;;;1.70;;
75316;SDS011;63913;51.492;10.368;2023-08-07T02:46:04;2.13;;;1.58;;
75316;SDS011;63913;51.492;10.368;2023-08-07T02:48:30;3.33;;;1.63;;
75316;SDS011;63913;51.492;10.368;2023-08-07T02:50:56;3.13;;;1.67;;
75316;SDS011;63913;51.492;10.368;2023-08-07T02:53:21;2.53;;;1.55;;
75316;SDS011;63913;51.492;10.368;2023-08-07T02:55:47;2.92;;;1.60;;
75316;SDS011;63913;51.492;10.368;2023-08-07T02:58:12;1.50;;;1.40;;
75316;SDS011;63913;51.492;10.368;2023-08-07T03:00:37;2.15;;;1.05;;
75316;SDS011;63913;51.492;10.368;2023-08-07T03:03:03;3.63;;;1.63;;
75316;SDS011;63913;51.492;10.368;2023-08-07T03:05:28;1.83;;;1.15;;
75316;SDS011;63913;51.492;10.368;2023-08-07T03:07:54;3.53;;;1.30;;
75316;SDS011;63913;51.492;10.368;2023-08-07T03:10:19;2.47;;;1.25;;
75316;SDS011;63913;51.492;10.368;2023-08-07T03:12:45;2.08;;;1.50;;
75316;SDS011;63913;51.492;10.368;2023-08-07T03:15:11;1.88;;;1.17;;
75316;SDS011;63913;51.492;10.368;2023-08-07T03:17:37;2.50;;;1.60;;
75316;SDS011;63913;51.492;10.368;2023-08-07T03:20:02;2.53;;;1.20;;
75316;SDS011;63913;51.492;10.368;2023-08-07T03:22:29;4.13;;;1.27;;
75316;SDS011;63913;51.492;10.368;2023-08-07T03:24:54;2.90;;;1.23;;
75316;SDS011;63913;51.492;10.368;2023-08-07T03:27:20;3.42;;;1.10;;
75316;SDS011;63913;51.492;10.368;2023-08-07T03:29:46;1.10;;;0.98;;
75316;SDS011;63913;51.492;10.368;2023-08-07T03:32:12;2.20;;;1.10;;
75316;SDS011;63913;51.492;10.368;2023-08-07T03:34:37;2.50;;;1.30;;
75316;SDS011;63913;51.492;10.368;2023-08-07T03:37:04;3.20;;;1.20;;
75316;SDS011;63913;51.492;10.368;2023-08-07T03:39:30;1.42;;;1.00;;
75316;SDS011;63913;51.492;10.368;2023-08-07T03:41:55;1.48;;;1.00;;
75316;SDS011;63913;51.492;10.368;2023-08-07T03:44:22;1.38;;;0.93;;
75316;SDS011;63913;51.492;10.368;2023-08-07T03:46:47;1.88;;;1.00;;
75316;SDS011;63913;51.492;10.368;2023-08-07T03:49:13;1.92;;;1.17;;
75316;SDS011;63913;51.492;10.368;2023-08-07T03:51:39;2.20;;;0.73;;
75316;SDS011;63913;51.492;10.368;2023-08-07T03:54:04;0.82;;;0.70;;
75316;SDS011;63913;51.492;10.368;2023-08-07T03:56:30;0.88;;;0.70;;
75316;SDS011;63913;51.492;10.368;2023-08-07T03:59:02;0.60;;;0.60;;
75316;SDS011;63913;51.492;10.368;2023-08-07T04:01:28;0.70;;;0.45;;
75316;SDS011;63913;51.492;10.368;2023-08-07T04:03:54;1.02;;;0.60;;
75316;SDS011;63913;51.492;10.368;2023-08-07T04:06:19;0.65;;;0.40;;
75316;SDS011;63913;51.492;10.368;2023-08-07T04:08:47;0.50;;;0.50;;
75316;SDS011;63913;51.492;10.368;2023-08-07T04:11:12;1.33;;;0.60;;
75316;SDS011;63913;51.492;10.368;2023-08-07T04:13:38;1.17;;;0.60;;
75316;SDS011;63913;51.492;10.368;2023-08-07T04:16:04;1.00;;;0.63;;
75316;SDS011;63913;51.492;10.368;2023-08-07T04:18:33;0.40;;;0.40;;
75316;SDS011;63913;51.492;10.368;2023-08-07T04:21:00;0.50;;;0.50;;
75316;SDS011;63913;51.492;10.368;2023-08-07T04:23:26;1.30;;;0.77;;
75316;SDS011;63913;51.492;10.368;2023-08-07T04:25:52;0.70;;;0.70;;
75316;SDS011;63913;51.492;10.368;2023-08-07T04:28:18;0.60;;;0.60;;
75316;SDS011;63913;51.492;10.368;2023-08-07T04:30:44;0.40;;;0.40;;
75316;SDS011;63913;51.492;10.368;2023-08-07T04:33:13;1.30;;;0.80;;
75316;SDS011;63913;51.492;10.368;2023-08-07T04:35:39;0.50;;;0.50;;
75316;SDS011;63913;51.492;10.368;2023-08-07T04:38:05;1.20;;;0.40;;
75316;SDS011;63913;51.492;10.368;2023-08-07T04:40:30;0.50;;;0.50;;
75316;SDS011;63913;51.492;10.368;2023-08-07T04:42:56;0.98;;;0.80;;
75316;SDS011;63913;51.492;10.368;2023-08-07T04:45:21;0.60;;;0.60;;
75316;SDS011;63913;51.492;10.368;2023-08-07T04:47:46;1.33;;;0.60;;
75316;SDS011;63913;51.492;10.368;2023-08-07T04:50:12;0.98;;;0.75;;
75316;SDS011;63913;51.492;10.368;2023-08-07T04:52:38;0.93;;;0.70;;
75316;SDS011;63913;51.492;10.368;2023-08-07T04:55:03;0.55;;;0.55;;
75316;SDS011;63913;51.492;10.368;2023-08-07T04:57:29;0.75;;;0.63;;
75316;SDS011;63913;51.492;10.368;2023-08-07T04:59:55;0.73;;;0.60;;
75316;SDS011;63913;51.492;10.368;2023-08-07T05:02:20;0.82;;;0.75;;
75316;SDS011;63913;51.492;10.368;2023-08-07T05:04:45;0.60;;;0.55;;
75316;SDS011;63913;51.492;10.368;2023-08-07T05:07:11;1.65;;;0.70;;
75316;SDS011;63913;51.492;10.368;2023-08-07T05:09:37;0.82;;;0.60;;
75316;SDS011;63913;51.492;10.368;2023-08-07T05:12:03;0.65;;;0.65;;
75316;SDS011;63913;51.492;10.368;2023-08-07T05:14:29;0.55;;;0.52;;
75316;SDS011;63913;51.492;10.368;2023-08-07T05:16:54;1.00;;;0.70;;
75316;SDS011;63913;51.492;10.368;2023-08-07T05:19:20;0.88;;;0.60;;
75316;SDS011;63913;51.492;10.368;2023-08-07T05:21:49;0.70;;;0.70;;
75316;SDS011;63913;51.492;10.368;2023-08-07T05:24:16;1.17;;;0.90;;
75316;SDS011;63913;51.492;10.368;2023-08-07T05:26:42;0.63;;;0.63;;
75316;SDS011;63913;51.492;10.368;2023-08-07T05:29:07;0.85;;;0.85;;
75316;SDS011;63913;51.492;10.368;2023-08-07T05:31:33;1.95;;;0.80;;
75316;SDS011;63913;51.492;10.368;2023-08-07T05:33:58;0.93;;;0.90;;
75316;SDS011;63913;51.492;10.368;2023-08-07T05:36:24;1.10;;;0.90;;
75316;SDS011;63913;51.492;10.368;2023-08-07T05:38:49;1.17;;;0.93;;
75316;SDS011;63913;51.492;10.368;2023-08-07T05:41:15;0.90;;;0.90;;
75316;SDS011;63913;51.492;10.368;2023-08-07T05:43:41;1.80;;;1.00;;
75316;SDS011;63913;51.492;10.368;2023-08-07T05:46:06;1.20;;;1.00;;
75316;SDS011;63913;51.492;10.368;2023-08-07T05:48:32;1.58;;;0.98;;
75316;SDS011;63913;51.492;10.368;2023-08-07T05:50:57;2.40;;;1.00;;
75316;SDS011;63913;51.492;10.368;2023-08-07T05:53:22;0.80;;;0.80;;
75316;SDS011;63913;51.492;10.368;2023-08-07T05:55:48;0.80;;;0.80;;
75316;SDS011;63913;51.492;10.368;2023-08-07T05:58:13;2.58;;;1.08;;
75316;SDS011;63913;51.492;10.368;2023-08-07T06:00:39;1.27;;;1.10;;
75316;SDS011;63913;51.492;10.368;2023-08-07T06:03:04;1.70;;;1.23;;
75316;SDS011;63913;51.492;10.368;2023-08-07T06:05:29;1.80;;;1.27;;
75316;SDS011;63913;51.492;10.368;2023-08-07T06:07:55;5.00;;;2.45;;
75316;SDS011;63913;51.492;10.368;2023-08-07T06:10:20;6.10;;;2.92;;
75316;SDS011;63913;51.492;10.368;2023-08-07T06:12:46;6.95;;;4.32;;
75316;SDS011;63913;51.492;10.368;2023-08-07T06:15:11;3.88;;;2.75;;
75316;SDS011;63913;51.492;10.368;2023-08-07T06:17:36;6.10;;;2.00;;
75316;SDS011;63913;51.492;10.368;2023-08-07T06:20:05;2.05;;;1.33;;
75316;SDS011;63913;51.492;10.368;2023-08-07T06:22:34;2.15;;;1.40;;
75316;SDS011;63913;51.492;10.368;2023-08-07T06:25:00;1.80;;;1.40;;
75316;SDS011;63913;51.492;10.368;2023-08-07T06:27:25;3.33;;;1.65;;
75316;SDS011;63913;51.492;10.368;2023-08-07T06:29:50;2.00;;;1.35;;
75316;SDS011;63913;51.492;10.368;2023-08-07T06:32:16;2.17;;;1.77;;
75316;SDS011;63913;51.492;10.368;2023-08-07T06:34:43;2.97;;;1.60;;
75316;SDS011;63913;51.492;10.368;2023-08-07T06:37:08;4.00;;;1.50;;
75316;SDS011;63913;51.492;10.368;2023-08-07T06:39:34;1.58;;;1.30;;
75316;SDS011;63913;51.492;10.368;2023-08-07T06:41:59;2.45;;;1.80;;
75316;SDS011;63913;51.492;10.368;2023-08-07T06:44:30;3.60;;;1.67;;
75316;SDS011;63913;51.492;10.368;2023-08-07T06:46:55;3.67;;;1.58;;
75316;SDS011;63913;51.492;10.368;2023-08-07T06:49:21;5.10;;;2.83;;
75316;SDS011;63913;51.492;10.368;2023-08-07T06:51:46;3.30;;;2.20;;
75316;SDS011;63913;51.492;10.368;2023-08-07T06:54:12;4.43;;;1.65;;
75316;SDS011;63913;51.492;10.368;2023-08-07T06:56:37;2.63;;;1.83;;
75316;SDS011;63913;51.492;10.368;2023-08-07T06:59:05;4.70;;;1.65;;
75316;SDS011;63913;51.492;10.368;2023-08-07T07:01:31;2.30;;;1.50;;
75316;SDS011;63913;51.492;10.368;2023-08-07T07:03:57;3.55;;;1.42;;
75316;SDS011;63913;51.492;10.368;2023-08-07T07:06:22;3.08;;;1.75;;
75316;SDS011;63913;51.492;10.368;2023-08-07T07:08:50;2.97;;;1.92;;
75316;SDS011;63913;51.492;10.368;2023-08-07T07:11:19;3.45;;;1.50;;
75316;SDS011;63913;51.492;10.368;2023-08-07T07:13:45;2.22;;;1.30;;
75316;SDS011;63913;51.492;10.368;2023-08-07T07:16:11;2.20;;;1.40;;
75316;SDS011;63913;51.492;10.368;2023-08-07T07:18:38;1.25;;;1.15;;
75316;SDS011;63913;51.492;10.368;2023-08-07T07:21:03;1.50;;;1.02;;
75316;SDS011;63913;51.492;10.368;2023-08-07T07:23:29;1.13;;;1.00;;
75316;SDS011;63913;51.492;10.368;2023-08-07T07:25:55;18.38;;;2.00;;
75316;SDS011;63913;51.492;10.368;2023-08-07T07:28:20;6.85;;;1.70;;
75316;SDS011;63913;51.492;10.368;2023-08-07T07:30:46;5.43;;;1.45;;
75316;SDS011;63913;51.492;10.368;2023-08-07T07:33:11;1.83;;;1.00;;
75316;SDS011;63913;51.492;10.368;2023-08-07T07:35:38;0.68;;;0.60;;
75316;SDS011;63913;51.492;10.368;2023-08-07T07:38:04;0.80;;;0.80;;
75316;SDS011;63913;51.492;10.368;2023-08-07T07:40:31;2.25;;;0.80;;
75316;SDS011;63913;51.492;10.368;2023-08-07T07:42:56;16.13;;;2.25;;
75316;SDS011;63913;51.492;10.368;2023-08-07T07:45:21;2.95;;;0.77;;
75316;SDS011;63913;51.492;10.368;2023-08-07T07:47:47;1.75;;;0.60;;
75316;SDS011;63913;51.492;10.368;2023-08-07T07:50:12;1.92;;;0.90;;
75316;SDS011;63913;51.492;10.368;2023-08-07T07:52:38;2.53;;;0.85;;
75316;SDS011;63913;51.492;10.368;2023-08-07T07:55:04;2.13;;;0.70;;
75316;SDS011;63913;51.492;10.368;2023-08-07T07:57:30;1.20;;;0.82;;
75316;SDS011;63913;51.492;10.368;2023-08-07T07:59:56;4.22;;;0.80;;
75316;SDS011;63913;51.492;10.368;2023-08-07T08:02:24;2.38;;;0.80;;
75316;SDS011;63913;51.492;10.368;2023-08-07T08:04:50;1.20;;;0.82;;
75316;SDS011;63913;51.492;10.368;2023-08-07T08:07:16;1.63;;;1.20;;
75316;SDS011;63913;51.492;10.368;2023-08-07T08:09:41;5.63;;;1.10;;
75316;SDS011;63913;51.492;10.368;2023-08-07T08:12:07;1.55;;;1.17;;
75316;SDS011;63913;51.492;10.368;2023-08-07T08:14:33;8.00;;;1.08;;
75316;SDS011;63913;51.492;10.368;2023-08-07T08:16:58;1.10;;;0.85;;
75316;SDS011;63913;51.492;10.368;2023-08-07T08:19:24;0.88;;;0.88;;
75316;SDS011;63913;51.492;10.368;2023-08-07T08:21:49;1.08;;;0.95;;
75316;SDS011;63913;51.492;10.368;2023-08-07T08:24:14;0.82;;;0.70;;
75316;SDS011;63913;51.492;10.368;2023-08-07T08:26:40;3.63;;;0.93;;
75316;SDS011;63913;51.492;10.368;2023-08-07T08:29:05;3.42;;;0.90;;
75316;SDS011;63913;51.492;10.368;2023-08-07T08:31:31;1.48;;;0.90;;
75316;SDS011;63913;51.492;10.368;2023-08-07T08:33:57;6.18;;;2.00;;
75316;SDS011;63913;51.492;10.368;2023-08-07T08:36:22;0.70;;;0.65;;
75316;SDS011;63913;51.492;10.368;2023-08-07T08:38:48;1.83;;;0.85;;
75316;SDS011;63913;51.492;10.368;2023-08-07T08:41:13;3.05;;;1.00;;
75316;SDS011;63913;51.492;10.368;2023-08-07T08:43:40;2.33;;;0.90;;
75316;SDS011;63913;51.492;10.368;2023-08-07T08:46:06;4.10;;;0.90;;
75316;SDS011;63913;51.492;10.368;2023-08-07T08:48:35;3.00;;;0.98;;
75316;SDS011;63913;51.492;10.368;2023-08-07T08:51:03;1.60;;;1.10;;
75316;SDS011;63913;51.492;10.368;2023-08-07T08:53:29;1.45;;;0.90;;
75316;SDS011;63913;51.492;10.368;2023-08-07T08:55:56;4.30;;;1.27;;
75316;SDS011;63913;51.492;10.368;2023-08-07T08:58:21;3.42;;;0.90;;
75316;SDS011;63913;51.492;10.368;2023-08-07T09:00:48;1.33;;;0.93;;
75316;SDS011;63913;51.492;10.368;2023-08-07T09:03:13;2.72;;;1.25;;
75316;SDS011;63913;51.492;10.368;2023-08-07T09:05:39;2.22;;;1.20;;
75316;SDS011;63913;51.492;10.368;2023-08-07T09:08:05;1.85;;;1.20;;
75316;SDS011;63913;51.492;10.368;2023-08-07T09:10:31;1.02;;;0.73;;
75316;SDS011;63913;51.492;10.368;2023-08-07T09:13:00;1.88;;;1.05;;
75316;SDS011;63913;51.492;10.368;2023-08-07T09:15:29;2.25;;;1.00;;
75316;SDS011;63913;51.492;10.368;2023-08-07T09:17:56;2.10;;;0.88;;
75316;SDS011;63913;51.492;10.368;2023-08-07T09:20:24;2.40;;;0.90;;
75316;SDS011;63913;51.492;10.368;2023-08-07T09:22:50;1.63;;;0.77;;
75316;SDS011;63913;51.492;10.368;2023-08-07T09:25:26;1.20;;;1.00;;
75316;SDS011;63913;51.492;10.368;2023-08-07T09:27:52;1.02;;;0.50;;
75316;SDS011;63913;51.492;10.368;2023-08-07T09:30:19;4.88;;;0.80;;
75316;SDS011;63913;51.492;10.368;2023-08-07T09:32:47;1.30;;;0.60;;
75316;SDS011;63913;51.492;10.368;2023-08-07T09:35:12;0.95;;;0.75;;
75316;SDS011;63913;51.492;10.368;2023-08-07T09:37:38;0.60;;;0.60;;
75316;SDS011;63913;51.492;10.368;2023-08-07T09:40:04;9.77;;;1.30;;
75316;SDS011;63913;51.492;10.368;2023-08-07T09:42:30;1.45;;;0.65;;
75316;SDS011;63913;51.492;10.368;2023-08-07T09:44:59;0.70;;;0.52;;
75316;SDS011;63913;51.492;10.368;2023-08-07T09:47:25;4.63;;;0.88;;
75316;SDS011;63913;51.492;10.368;2023-08-07T09:49:51;1.15;;;0.60;;
75316;SDS011;63913;51.492;10.368;2023-08-07T09:52:20;1.42;;;0.82;;
75316;SDS011;63913;51.492;10.368;2023-08-07T09:54:45;7.07;;;0.95;;
75316;SDS011;63913;51.492;10.368;2023-08-07T09:57:10;9.73;;;1.33;;
75316;SDS011;63913;51.492;10.368;2023-08-07T09:59:36;1.25;;;0.70;;
75316;SDS011;63913;51.492;10.368;2023-08-07T10:02:02;6.32;;;0.93;;
75316;SDS011;63913;51.492;10.368;2023-08-07T10:04:29;3.60;;;0.80;;
75316;SDS011;63913;51.492;10.368;2023-08-07T10:06:55;3.60;;;0.75;;
75316;SDS011;63913;51.492;10.368;2023-08-07T10:09:21;3.88;;;1.23;;
75316;SDS011;63913;51.492;10.368;2023-08-07T10:11:48;1.02;;;0.60;;
75316;SDS011;63913;51.492;10.368;2023-08-07T10:14:14;1.95;;;0.63;;
75316;SDS011;63913;51.492;10.368;2023-08-07T10:16:40;2.22;;;0.60;;
75316;SDS011;63913;51.492;10.368;2023-08-07T10:19:07;0.65;;;0.60;;
75316;SDS011;63913;51.492;10.368;2023-08-07T10:21:36;0.98;;;0.70;;
75316;SDS011;63913;51.492;10.368;2023-08-07T10:24:04;1.35;;;0.82;;
75316;SDS011;63913;51.492;10.368;2023-08-07T10:26:31;3.10;;;0.70;;
75316;SDS011;63913;51.492;10.368;2023-08-07T10:29:02;0.70;;;0.70;;
75316;SDS011;63913;51.492;10.368;2023-08-07T10:31:31;0.60;;;0.60;;
75316;SDS011;63913;51.492;10.368;2023-08-07T10:34:00;0.60;;;0.50;;
75316;SDS011;63913;51.492;10.368;2023-08-07T10:36:33;0.60;;;0.60;;
75316;SDS011;63913;51.492;10.368;2023-08-07T10:39:08;1.52;;;0.65;;
75316;SDS011;63913;51.492;10.368;2023-08-07T10:41:38;0.52;;;0.52;;
75316;SDS011;63913;51.492;10.368;2023-08-07T10:44:05;0.50;;;0.50;;
75316;SDS011;63913;51.492;10.368;2023-08-07T10:46:44;1.30;;;0.70;;
75316;SDS011;63913;51.492;10.368;2023-08-07T10:49:12;1.90;;;0.57;;
75316;SDS011;63913;51.492;10.368;2023-08-07T10:51:56;1.35;;;0.90;;
75316;SDS011;63913;51.492;10.368;2023-08-07T10:54:23;1.50;;;0.70;;
75316;SDS011;63913;51.492;10.368;2023-08-07T10:56:52;3.70;;;1.02;;
75316;SDS011;63913;51.492;10.368;2023-08-07T10:59:18;1.33;;;0.90;;
75316;SDS011;63913;51.492;10.368;2023-08-07T11:01:50;1.30;;;0.85;;
75316;SDS011;63913;51.492;10.368;2023-08-07T11:04:17;1.33;;;0.90;;
75316;SDS011;63913;51.492;10.368;2023-08-07T11:06:44;1.55;;;0.80;;
75316;SDS011;63913;51.492;10.368;2023-08-07T11:09:12;1.15;;;0.93;;
75316;SDS011;63913;51.492;10.368;2023-08-07T11:11:41;1.02;;;0.90;;
75316;SDS011;63913;51.492;10.368;2023-08-07T11:14:09;2.58;;;1.05;;
75316;SDS011;63913;51.492;10.368;2023-08-07T11:16:36;1.38;;;1.15;;
75316;SDS011;63913;51.492;10.368;2023-08-07T11:19:02;1.70;;;1.25;;
75316;SDS011;63913;51.492;10.368;2023-08-07T11:21:28;1.58;;;0.98;;
75316;SDS011;63913;51.492;10.368;2023-08-07T11:23:56;1.05;;;0.95;;
75316;SDS011;63913;51.492;10.368;2023-08-07T11:26:21;2.97;;;1.20;;
75316;SDS011;63913;51.492;10.368;2023-08-07T11:28:47;2.65;;;1.65;;
75316;SDS011;63913;51.492;10.368;2023-08-07T11:31:13;2.47;;;1.55;;
75316;SDS011;63913;51.492;10.368;2023-08-07T11:33:40;2.15;;;1.48;;
75316;SDS011;63913;51.492;10.368;2023-08-07T11:36:14;2.28;;;1.42;;
75316;SDS011;63913;51.492;10.368;2023-08-07T11:38:40;5.65;;;1.60;;
75316;SDS011;63913;51.492;10.368;2023-08-07T11:41:11;7.45;;;1.80;;
75316;SDS011;63913;51.492;10.368;2023-08-07T11:43:38;3.70;;;1.90;;
75316;SDS011;63913;51.492;10.368;2023-08-07T11:46:04;4.47;;;2.03;;
75316;SDS011;63913;51.492;10.368;2023-08-07T11:48:33;13.20;;;2.30;;
75316;SDS011;63913;51.492;10.368;2023-08-07T11:51:00;10.95;;;2.20;;
75316;SDS011;63913;51.492;10.368;2023-08-07T11:53:27;3.78;;;1.90;;
75316;SDS011;63913;51.492;10.368;2023-08-07T11:56:05;10.07;;;1.83;;
75316;SDS011;63913;51.492;10.368;2023-08-07T11:58:41;9.30;;;1.80;;
75316;SDS011;63913;51.492;10.368;2023-08-07T12:01:14;14.68;;;2.13;;
75316;SDS011;63913;51.492;10.368;2023-08-07T12:03:42;21.20;;;2.70;;
75316;SDS011;63913;51.492;10.368;2023-08-07T12:06:16;5.35;;;1.42;;
75316;SDS011;63913;51.492;10.368;2023-08-07T12:08:41;5.00;;;1.60;;
75316;SDS011;63913;51.492;10.368;2023-08-07T12:11:08;5.07;;;1.50;;
75316;SDS011;63913;51.492;10.368;2023-08-07T12:13:36;7.65;;;1.52;;
75316;SDS011;63913;51.492;10.368;2023-08-07T12:16:03;7.60;;;1.48;;
75316;SDS011;63913;51.492;10.368;2023-08-07T12:18:29;21.10;;;2.17;;
75316;SDS011;63913;51.492;10.368;2023-08-07T12:20:59;5.40;;;1.40;;
75316;SDS011;63913;51.492;10.368;2023-08-07T12:23:25;18.75;;;1.98;;
75316;SDS011;63913;51.492;10.368;2023-08-07T12:25:51;12.23;;;1.60;;
75316;SDS011;63913;51.492;10.368;2023-08-07T12:28:17;11.52;;;1.92;;
75316;SDS011;63913;51.492;10.368;2023-08-07T12:30:46;8.35;;;1.35;;
75316;SDS011;63913;51.492;10.368;2023-08-07T12:33:12;2.95;;;1.13;;
75316;SDS011;63913;51.492;10.368;2023-08-07T12:35:39;20.40;;;3.33;;
75316;SDS011;63913;51.492;10.368;2023-08-07T12:38:05;12.30;;;1.48;;
75316;SDS011;63913;51.492;10.368;2023-08-07T12:40:30;7.75;;;1.50;;
75316;SDS011;63913;51.492;10.368;2023-08-07T12:42:56;13.10;;;2.03;;
75316;SDS011;63913;51.492;10.368;2023-08-07T12:45:22;3.50;;;1.10;;
75316;SDS011;63913;51.492;10.368;2023-08-07T12:47:48;5.28;;;1.10;;
75316;SDS011;63913;51.492;10.368;2023-08-07T12:50:13;4.10;;;1.42;;
75316;SDS011;63913;51.492;10.368;2023-08-07T12:52:39;12.20;;;1.52;;
75316;SDS011;63913;51.492;10.368;2023-08-07T12:55:04;7.97;;;1.33;;
75316;SDS011;63913;51.492;10.368;2023-08-07T12:57:30;1.40;;;1.20;;
75316;SDS011;63913;51.492;10.368;2023-08-07T12:59:57;2.65;;;1.38;;
75316;SDS011;63913;51.492;10.368;2023-08-07T13:02:22;1.30;;;0.93;;
75316;SDS011;63913;51.492;10.368;2023-08-07T13:04:48;3.17;;;0.80;;
75316;SDS011;63913;51.492;10.368;2023-08-07T13:07:13;1.60;;;0.75;;
75316;SDS011;63913;51.492;10.368;2023-08-07T13:09:38;1.05;;;0.88;;
75316;SDS011;63913;51.492;10.368;2023-08-07T13:12:04;3.33;;;0.98;;
75316;SDS011;63913;51.492;10.368;2023-08-07T13:14:29;2.50;;;1.08;;
75316;SDS011;63913;51.492;10.368;2023-08-07T13:16:55;3.13;;;1.02;;
75316;SDS011;63913;51.492;10.368;2023-08-07T13:19:20;1.67;;;0.90;;
75316;SDS011;63913;51.492;10.368;2023-08-07T13:21:46;1.92;;;0.93;;
75316;SDS011;63913;51.492;10.368;2023-08-07T13:24:11;1.80;;;1.00;;
75316;SDS011;63913;51.492;10.368;2023-08-07T13:26:37;1.23;;;1.13;;
75316;SDS011;63913;51.492;10.368;2023-08-07T13:29:03;1.42;;;0.90;;
75316;SDS011;63913;51.492;10.368;2023-08-07T13:31:29;2.85;;;1.05;;
75316;SDS011;63913;51.492;10.368;2023-08-07T13:33:54;2.65;;;0.98;;
75316;SDS011;63913;51.492;10.368;2023-08-07T13:36:20;3.30;;;1.27;;
75316;SDS011;63913;51.492;10.368;2023-08-07T13:38:45;2.65;;;1.00;;
75316;SDS011;63913;51.492;10.368;2023-08-07T13:41:10;1.33;;;1.10;;
75316;SDS011;63913;51.492;10.368;2023-08-07T13:43:37;3.75;;;1.80;;
75316;SDS011;63913;51.492;10.368;2023-08-07T13:46:02;4.70;;;1.42;;
75316;SDS011;63913;51.492;10.368;2023-08-07T13:48:28;2.65;;;1.40;;
75316;SDS011;63913;51.492;10.368;2023-08-07T13:50:53;1.88;;;1.20;;
75316;SDS011;63913;51.492;10.368;2023-08-07T13:53:19;9.88;;;1.67;;
75316;SDS011;63913;51.492;10.368;2023-08-07T13:55:49;7.35;;;1.65;;
75316;SDS011;63913;51.492;10.368;2023-08-07T13:58:14;4.78;;;1.30;;
75316;SDS011;63913;51.492;10.368;2023-08-07T14:00:40;5.38;;;1.85;;
75316;SDS011;63913;51.492;10.368;2023-08-07T14:03:07;3.17;;;1.45;;
75316;SDS011;63913;51.492;10.368;2023-08-07T14:05:34;3.42;;;1.20;;
75316;SDS011;63913;51.492;10.368;2023-08-07T14:07:59;4.15;;;1.70;;
75316;SDS011;63913;51.492;10.368;2023-08-07T14:10:24;7.40;;;1.60;;
75316;SDS011;63913;51.492;10.368;2023-08-07T14:12:50;4.72;;;1.77;;
75316;SDS011;63913;51.492;10.368;2023-08-07T14:15:15;6.35;;;2.15;;
75316;SDS011;63913;51.492;10.368;2023-08-07T14:17:41;4.22;;;1.90;;
75316;SDS011;63913;51.492;10.368;2023-08-07T14:20:07;3.95;;;1.63;;
75316;SDS011;63913;51.492;10.368;2023-08-07T14:22:33;6.05;;;1.60;;
75316;SDS011;63913;51.492;10.368;2023-08-07T14:25:01;5.88;;;1.40;;
75316;SDS011;63913;51.492;10.368;2023-08-07T14:27:30;6.05;;;1.40;;
75316;SDS011;63913;51.492;10.368;2023-08-07T14:29:56;3.72;;;1.50;;
75316;SDS011;63913;51.492;10.368;2023-08-07T14:32:21;4.78;;;1.40;;
75316;SDS011;63913;51.492;10.368;2023-08-07T14:34:48;6.00;;;1.48;;
75316;SDS011;63913;51.492;10.368;2023-08-07T14:37:14;6.40;;;1.40;;
75316;SDS011;63913;51.492;10.368;2023-08-07T14:39:39;4.88;;;1.45;;